HBGRJ ED85-LSZR
Flight info
| Callsign | HBGRJ |
|---|---|
| Flight time | N/A |
| Altitude | 6000 |
| Route | SUL/N0192F050 IFR DCT ROMIR DCT SITOR |
| Aircraft | B58T/L-SBDFGRY/C |
Departure
| Time | N/A |
|---|---|
| Airport | ED85 |
Arrival
| Time | 2026-04-22 23:03 |
|---|---|
| Airport | Sankt Gallen Altenrhein Airport (LSZR) |
| Time | Latitude | Longitude | Altitude | Speed | Heading |
|---|---|---|---|---|---|
| 2026-04-22 22:23 | 48.78458 | 8.91001 | 1485 ft | 0 kts | 108° |
| 2026-04-22 22:33 | 48.78440 | 8.91037 | 1483 ft | 5 kts | 127° |
| 2026-04-22 22:33 | 48.78415 | 8.91071 | 1487 ft | 6 kts | 159° |
| 2026-04-22 22:33 | 48.78380 | 8.91107 | 1482 ft | 4 kts | 80° |
| 2026-04-22 22:33 | 48.78381 | 8.91110 | 1483 ft | 0 kts | 77° |
| 2026-04-22 22:34 | 48.78402 | 8.91241 | 1488 ft | 54 kts | 76° |
| 2026-04-22 22:34 | 48.78559 | 8.92154 | 1672 ft | 109 kts | 74° |
| 2026-04-22 22:34 | 48.78778 | 8.93358 | 2093 ft | 123 kts | 77° |
| 2026-04-22 22:34 | 48.78965 | 8.94602 | 2557 ft | 119 kts | 77° |
| 2026-04-22 22:35 | 48.78915 | 8.95797 | 2976 ft | 121 kts | 120° |
| 2026-04-22 22:35 | 48.78135 | 8.96317 | 3364 ft | 137 kts | 180° |
| 2026-04-22 22:35 | 48.77209 | 8.95870 | 3839 ft | 138 kts | 177° |
| 2026-04-22 22:35 | 48.76370 | 8.96328 | 4344 ft | 128 kts | 146° |
| 2026-04-22 22:36 | 48.75487 | 8.96644 | 4859 ft | 130 kts | 167° |
| 2026-04-22 22:36 | 48.74594 | 8.96785 | 5371 ft | 129 kts | 166° |
| 2026-04-22 22:36 | 48.73695 | 8.96928 | 5868 ft | 130 kts | 167° |
| 2026-04-22 22:36 | 48.72788 | 8.97058 | 6390 ft | 132 kts | 167° |
| 2026-04-22 22:37 | 48.71840 | 8.97195 | 6769 ft | 141 kts | 168° |
| 2026-04-22 22:37 | 48.70815 | 8.97340 | 7034 ft | 153 kts | 169° |
| 2026-04-22 22:37 | 48.69725 | 8.97491 | 7296 ft | 160 kts | 169° |
| 2026-04-22 22:37 | 48.68597 | 8.97642 | 7562 ft | 165 kts | 169° |
| 2026-04-22 22:38 | 48.67440 | 8.97801 | 7822 ft | 169 kts | 169° |
| 2026-04-22 22:38 | 48.66265 | 8.97962 | 8078 ft | 170 kts | 169° |
| 2026-04-22 22:38 | 48.65085 | 8.98123 | 8335 ft | 171 kts | 170° |
| 2026-04-22 22:38 | 48.63895 | 8.98284 | 8641 ft | 171 kts | 169° |
| 2026-04-22 22:39 | 48.62711 | 8.98447 | 8948 ft | 171 kts | 169° |
| 2026-04-22 22:39 | 48.61523 | 8.98614 | 9256 ft | 172 kts | 169° |
| 2026-04-22 22:39 | 48.60351 | 8.98775 | 9565 ft | 171 kts | 169° |
| 2026-04-22 22:39 | 48.59151 | 8.98938 | 9886 ft | 171 kts | 169° |
| 2026-04-22 22:40 | 48.57977 | 8.99101 | 10199 ft | 172 kts | 169° |
| 2026-04-22 22:40 | 48.56788 | 8.99262 | 10489 ft | 172 kts | 170° |
| 2026-04-22 22:40 | 48.55594 | 8.99425 | 10783 ft | 173 kts | 169° |
| 2026-04-22 22:40 | 48.54389 | 8.99593 | 11081 ft | 173 kts | 169° |
| 2026-04-22 22:41 | 48.53183 | 8.99756 | 11378 ft | 174 kts | 169° |
| 2026-04-22 22:41 | 48.51971 | 8.99923 | 11687 ft | 176 kts | 169° |
| 2026-04-22 22:41 | 48.50746 | 9.00089 | 11981 ft | 177 kts | 169° |
| 2026-04-22 22:41 | 48.49514 | 9.00259 | 12292 ft | 179 kts | 169° |
| 2026-04-22 22:42 | 48.48273 | 9.00428 | 12602 ft | 180 kts | 169° |
| 2026-04-22 22:42 | 48.47022 | 9.00598 | 12915 ft | 181 kts | 169° |
| 2026-04-22 22:42 | 48.45784 | 9.00766 | 13223 ft | 181 kts | 169° |
| 2026-04-22 22:42 | 48.44491 | 9.00946 | 13317 ft | 194 kts | 169° |
| 2026-04-22 22:43 | 48.43110 | 9.01136 | 13322 ft | 205 kts | 170° |
| 2026-04-22 22:43 | 48.41667 | 9.01330 | 13324 ft | 212 kts | 170° |
| 2026-04-22 22:43 | 48.40182 | 9.01529 | 13320 ft | 215 kts | 171° |
| 2026-04-22 22:43 | 48.38690 | 9.01731 | 13320 ft | 217 kts | 170° |
| 2026-04-22 22:44 | 48.37185 | 9.01935 | 13319 ft | 216 kts | 171° |
| 2026-04-22 22:44 | 48.35694 | 9.02135 | 13317 ft | 213 kts | 171° |
| 2026-04-22 22:44 | 48.34225 | 9.02335 | 13320 ft | 211 kts | 170° |
| 2026-04-22 22:44 | 48.32764 | 9.02534 | 13313 ft | 210 kts | 170° |
| 2026-04-22 22:45 | 48.31308 | 9.02732 | 13314 ft | 210 kts | 170° |
| 2026-04-22 22:45 | 48.29857 | 9.02930 | 13315 ft | 209 kts | 171° |
| 2026-04-22 22:45 | 48.28403 | 9.03128 | 13319 ft | 209 kts | 171° |
| 2026-04-22 22:45 | 48.26957 | 9.03323 | 13307 ft | 209 kts | 171° |
| 2026-04-22 22:46 | 48.25511 | 9.03517 | 13312 ft | 208 kts | 170° |
| 2026-04-22 22:46 | 48.24064 | 9.03716 | 13310 ft | 211 kts | 170° |
| 2026-04-22 22:46 | 48.22588 | 9.03916 | 13313 ft | 214 kts | 171° |
| 2026-04-22 22:46 | 48.21096 | 9.04116 | 13321 ft | 216 kts | 170° |
| 2026-04-22 22:47 | 48.19585 | 9.04321 | 13319 ft | 219 kts | 170° |
| 2026-04-22 22:47 | 48.18577 | 9.04457 | 13322 ft | 220 kts | 170° |
| 2026-04-22 22:47 | 48.17048 | 9.04661 | 13315 ft | 221 kts | 171° |
| 2026-04-22 22:47 | 48.15518 | 9.04868 | 13318 ft | 221 kts | 171° |
| 2026-04-22 22:48 | 48.13982 | 9.05077 | 13314 ft | 222 kts | 171° |
| 2026-04-22 22:48 | 48.12447 | 9.05281 | 13317 ft | 222 kts | 171° |
| 2026-04-22 22:48 | 48.10907 | 9.05488 | 13309 ft | 223 kts | 171° |
| 2026-04-22 22:48 | 48.09372 | 9.05696 | 13307 ft | 220 kts | 171° |
| 2026-04-22 22:49 | 48.07856 | 9.05899 | 13309 ft | 217 kts | 170° |
| 2026-04-22 22:49 | 48.06361 | 9.06099 | 13311 ft | 216 kts | 170° |
| 2026-04-22 22:49 | 48.04864 | 9.06300 | 13304 ft | 216 kts | 171° |
| 2026-04-22 22:49 | 48.03421 | 9.06760 | 13292 ft | 210 kts | 154° |
| 2026-04-22 22:50 | 48.02078 | 9.07604 | 13291 ft | 209 kts | 152° |
| 2026-04-22 22:50 | 48.00728 | 9.08436 | 13291 ft | 210 kts | 154° |
| 2026-04-22 22:50 | 47.99342 | 9.09152 | 13294 ft | 211 kts | 157° |
| 2026-04-22 22:50 | 47.97951 | 9.09842 | 13290 ft | 211 kts | 156° |
| 2026-04-22 22:51 | 47.96569 | 9.10548 | 13298 ft | 210 kts | 156° |
| 2026-04-22 22:51 | 47.95182 | 9.11262 | 13296 ft | 211 kts | 156° |
| 2026-04-22 22:51 | 47.93780 | 9.11980 | 13048 ft | 220 kts | 156° |
| 2026-04-22 22:51 | 47.92289 | 9.12740 | 12796 ft | 226 kts | 156° |
| 2026-04-22 22:52 | 47.90788 | 9.13500 | 12542 ft | 229 kts | 157° |
| 2026-04-22 22:52 | 47.89286 | 9.14264 | 12287 ft | 224 kts | 157° |
| 2026-04-22 22:52 | 47.87836 | 9.15001 | 12033 ft | 218 kts | 156° |
| 2026-04-22 22:52 | 47.86424 | 9.15723 | 11773 ft | 216 kts | 156° |
| 2026-04-22 22:53 | 47.85010 | 9.16444 | 11508 ft | 214 kts | 156° |
| 2026-04-22 22:53 | 47.83600 | 9.17161 | 11254 ft | 212 kts | 156° |
| 2026-04-22 22:53 | 47.82209 | 9.17867 | 11004 ft | 209 kts | 156° |
| 2026-04-22 22:53 | 47.80837 | 9.18567 | 10760 ft | 208 kts | 156° |
| 2026-04-22 22:54 | 47.79470 | 9.19261 | 10507 ft | 208 kts | 156° |
| 2026-04-22 22:54 | 47.78098 | 9.19956 | 10281 ft | 209 kts | 156° |
| 2026-04-22 22:54 | 47.76717 | 9.20660 | 10011 ft | 211 kts | 156° |
| 2026-04-22 22:54 | 47.75332 | 9.21361 | 9745 ft | 209 kts | 157° |
| 2026-04-22 22:55 | 47.73960 | 9.22053 | 9479 ft | 208 kts | 156° |
| 2026-04-22 22:55 | 47.72595 | 9.22745 | 9216 ft | 207 kts | 157° |
| 2026-04-22 22:55 | 47.69887 | 9.24116 | 8693 ft | 205 kts | 157° |
| 2026-04-22 22:56 | 47.68540 | 9.24797 | 8439 ft | 204 kts | 157° |
| 2026-04-22 22:56 | 47.67190 | 9.25480 | 8184 ft | 205 kts | 157° |
| 2026-04-22 22:56 | 47.65867 | 9.26147 | 7935 ft | 203 kts | 157° |
| 2026-04-22 22:56 | 47.64541 | 9.26894 | 7675 ft | 200 kts | 152° |
| 2026-04-22 22:57 | 47.63310 | 9.27777 | 7435 ft | 198 kts | 149° |
| 2026-04-22 22:57 | 47.62076 | 9.28684 | 7187 ft | 198 kts | 149° |
| 2026-04-22 22:57 | 47.60842 | 9.29590 | 6924 ft | 198 kts | 149° |
| 2026-04-22 22:57 | 47.59600 | 9.30505 | 6642 ft | 201 kts | 149° |
| 2026-04-22 22:58 | 47.58341 | 9.31436 | 6322 ft | 202 kts | 149° |
| 2026-04-22 22:58 | 47.57084 | 9.32366 | 6024 ft | 202 kts | 149° |
| 2026-04-22 22:58 | 47.55835 | 9.33290 | 5683 ft | 199 kts | 149° |
| 2026-04-22 22:58 | 47.54608 | 9.34187 | 5328 ft | 192 kts | 150° |
| 2026-04-22 22:59 | 47.53437 | 9.35056 | 4971 ft | 185 kts | 149° |
| 2026-04-22 22:59 | 47.52289 | 9.35903 | 4602 ft | 185 kts | 149° |
| 2026-04-22 22:59 | 47.51248 | 9.36977 | 4270 ft | 179 kts | 126° |
| 2026-04-22 22:59 | 47.50797 | 9.38580 | 4289 ft | 167 kts | 102° |
| 2026-04-22 23:00 | 47.50529 | 9.40242 | 4284 ft | 168 kts | 101° |
| 2026-04-22 23:00 | 47.50285 | 9.41938 | 4193 ft | 172 kts | 100° |
| 2026-04-22 23:00 | 47.50067 | 9.43698 | 3875 ft | 171 kts | 98° |
| 2026-04-22 23:00 | 47.49852 | 9.45358 | 3522 ft | 158 kts | 98° |
| 2026-04-22 23:01 | 47.49675 | 9.46852 | 3092 ft | 141 kts | 98° |
| 2026-04-22 23:01 | 47.49485 | 9.48269 | 2627 ft | 140 kts | 99° |
| 2026-04-22 23:01 | 47.49299 | 9.49673 | 2381 ft | 139 kts | 102° |
| 2026-04-22 23:01 | 47.49074 | 9.51072 | 2117 ft | 140 kts | 103° |
| 2026-04-22 23:02 | 47.48900 | 9.52413 | 1853 ft | 121 kts | 101° |
| 2026-04-22 23:02 | 47.48768 | 9.53581 | 1627 ft | 113 kts | 100° |
| 2026-04-22 23:02 | 47.48648 | 9.54710 | 1406 ft | 107 kts | 100° |
| 2026-04-22 23:02 | 47.48542 | 9.55719 | 1314 ft | 83 kts | 99° |
| 2026-04-22 23:03 | 47.48468 | 9.56420 | 1306 ft | 58 kts | 98° |
| 2026-04-22 23:03 | 47.48424 | 9.56848 | 1306 ft | 26 kts | 99° |
| 2026-04-22 23:03 | 47.48411 | 9.57004 | 1310 ft | 11 kts | 86° |
| 2026-04-22 23:03 | 47.48453 | 9.57074 | 1310 ft | 12 kts | 8° |
| 2026-04-22 23:04 | 47.48538 | 9.57087 | 1308 ft | 11 kts | 349° |
| 2026-04-22 23:04 | 47.48564 | 9.56993 | 1308 ft | 11 kts | 278° |
| 2026-04-22 23:04 | 47.48575 | 9.56885 | 1307 ft | 10 kts | 279° |
| 2026-04-22 23:04 | 47.48585 | 9.56788 | 1307 ft | 9 kts | 275° |
| 2026-04-22 23:05 | 47.48595 | 9.56678 | 1307 ft | 11 kts | 279° |
| 2026-04-22 23:05 | 47.48607 | 9.56569 | 1307 ft | 11 kts | 279° |
| 2026-04-22 23:05 | 47.48618 | 9.56457 | 1306 ft | 11 kts | 279° |
| 2026-04-22 23:05 | 47.48627 | 9.56369 | 1307 ft | 8 kts | 282° |
| 2026-04-22 23:06 | 47.48653 | 9.56353 | 1306 ft | 7 kts | 14° |
| 2026-04-22 23:06 | 47.48667 | 9.56357 | 1306 ft | 0 kts | 11° |